Time;durP1;ratioP1;P1;durP2;ratioP2;P2;SDS_P1;SDS_P2;PMS_P1;PMS_P2;Temp;Humidity;BMP_temperature;BMP_pressure;BME280_temperature;BME280_humidity;BME280_pressure;Samples;Min_cycle;Max_cycle;Signal;HPM_P1;HPM_P2
2022/12/11 00:01:15;;;;;;;95.50;21.88;;;;;;;;;;5054925;28;20041;-71
2022/12/11 00:03:41;;;;;;;99.72;23.45;;;;;;;;;;5054659;28;20052;-71
2022/12/11 00:06:08;;;;;;;108.60;23.70;;;;;;;;;;5054965;28;20373;-71
2022/12/11 00:08:34;;;;;;;111.68;25.10;;;;;;;;;;5054301;28;20076;-71
2022/12/11 00:11:00;;;;;;;108.97;25.17;;;;;;;;;;5054798;28;20045;-71
2022/12/11 00:13:27;;;;;;;117.50;23.95;;;;;;;;;;5037638;28;20041;-71
2022/12/11 00:15:53;;;;;;;108.90;26.20;;;;;;;;;;5054455;28;20072;-71
2022/12/11 00:18:19;;;;;;;119.75;25.42;;;;;;;;;;5054616;28;20067;-71
2022/12/11 00:20:45;;;;;;;118.80;26.35;;;;;;;;;;5054195;28;20041;-71
2022/12/11 00:23:11;;;;;;;124.05;25.90;;;;;;;;;;5037554;28;20049;-71
2022/12/11 00:25:45;;;;;;;118.07;27.45;;;;;;;;;;5054440;28;20375;-71
2022/12/11 00:28:12;;;;;;;122.30;25.80;;;;;;;;;;5054614;28;20035;-71
2022/12/11 00:30:39;;;;;;;121.70;25.90;;;;;;;;;;5053896;28;20048;-71
2022/12/11 00:33:05;;;;;;;118.00;24.92;;;;;;;;;;5038075;28;20127;-71
2022/12/11 00:35:31;;;;;;;113.20;25.02;;;;;;;;;;5053350;28;20090;-71
2022/12/11 00:37:57;;;;;;;110.50;25.15;;;;;;;;;;5054482;28;20041;-71
2022/12/11 00:40:23;;;;;;;113.85;25.42;;;;;;;;;;5053986;28;20041;-71
2022/12/11 00:42:49;;;;;;;105.03;25.77;;;;;;;;;;5053881;28;20044;-71
2022/12/11 00:45:16;;;;;;;112.70;24.95;;;;;;;;;;5052941;28;20029;-71
2022/12/11 00:47:42;;;;;;;117.50;24.75;;;;;;;;;;5053879;28;20079;-71
2022/12/11 00:50:08;;;;;;;119.05;25.40;;;;;;;;;;5037266;28;20116;-71
2022/12/11 00:52:34;;;;;;;109.53;23.08;;;;;;;;;;5036908;28;20135;-71
2022/12/11 00:55:00;;;;;;;111.32;24.67;;;;;;;;;;5052638;28;20041;-71
2022/12/11 00:57:26;;;;;;;110.28;24.52;;;;;;;;;;5054025;28;20136;-71
2022/12/11 00:59:52;;;;;;;124.55;24.85;;;;;;;;;;5053418;28;20048;-71
2022/12/11 01:02:18;;;;;;;102.68;24.23;;;;;;;;;;5053702;28;20052;-71
2022/12/11 01:04:44;;;;;;;104.25;23.48;;;;;;;;;;5054963;28;20037;-71
2022/12/11 01:07:10;;;;;;;111.28;26.20;;;;;;;;;;5053267;28;20041;-71
2022/12/11 01:12:21;;;;;;;95.50;23.25;;;;;;;;;;5053556;28;20432;-71
2022/12/11 01:14:47;;;;;;;117.78;25.25;;;;;;;;;;5053494;28;20048;-71
2022/12/11 01:17:13;;;;;;;104.15;24.10;;;;;;;;;;5053306;28;20052;-71
2022/12/11 01:19:39;;;;;;;123.68;27.00;;;;;;;;;;5053223;28;20045;-71
2022/12/11 01:22:05;;;;;;;128.57;27.23;;;;;;;;;;5052976;28;20088;-71
2022/12/11 01:24:31;;;;;;;110.80;23.95;;;;;;;;;;5053460;28;20037;-71
2022/12/11 01:26:57;;;;;;;116.00;25.50;;;;;;;;;;5052810;28;20037;-71
2022/12/11 01:29:23;;;;;;;122.82;25.02;;;;;;;;;;5053049;28;20071;-70
2022/12/11 01:31:49;;;;;;;110.47;25.23;;;;;;;;;;5054215;28;20441;-71
2022/12/11 01:34:15;;;;;;;105.90;24.58;;;;;;;;;;5053137;28;20400;-71
2022/12/11 01:36:41;;;;;;;111.97;24.10;;;;;;;;;;5036594;28;20084;-71
2022/12/11 01:39:07;;;;;;;118.75;26.20;;;;;;;;;;5052685;28;20041;-71
2022/12/11 01:41:33;;;;;;;119.63;24.25;;;;;;;;;;5036157;28;20041;-71
2022/12/11 01:44:03;;;;;;;98.72;25.67;;;;;;;;;;5052969;28;20041;-71
2022/12/11 01:46:30;;;;;;;108.97;25.88;;;;;;;;;;5034775;28;20094;-71
2022/12/11 01:48:57;;;;;;;97.57;23.35;;;;;;;;;;5052702;28;20043;-71
2022/12/11 01:51:24;;;;;;;111.35;24.45;;;;;;;;;;5035968;28;20045;-71
2022/12/11 01:53:53;;;;;;;99.95;21.95;;;;;;;;;;5036321;28;20560;-71
2022/12/11 01:56:19;;;;;;;119.75;24.48;;;;;;;;;;5052674;28;20117;-71
2022/12/11 01:58:50;;;;;;;111.18;24.65;;;;;;;;;;5052118;28;20041;-71
2022/12/11 02:01:38;;;;;;;104.13;23.55;;;;;;;;;;5052409;28;20048;-71
2022/12/11 02:04:04;;;;;;;100.88;24.08;;;;;;;;;;5016368;28;20080;-71
2022/12/11 02:06:31;;;;;;;121.80;24.90;;;;;;;;;;5065968;28;20041;-71
2022/12/11 02:08:57;;;;;;;100.50;24.30;;;;;;;;;;5083755;28;20554;-71
2022/12/11 02:11:26;;;;;;;115.18;24.65;;;;;;;;;;5053679;28;20064;-71
2022/12/11 02:13:56;;;;;;;122.35;25.27;;;;;;;;;;5052168;28;20041;-71
2022/12/11 02:16:29;;;;;;;108.75;23.40;;;;;;;;;;5051963;28;20037;-71
2022/12/11 02:18:59;;;;;;;104.72;23.65;;;;;;;;;;5052263;28;20047;-71
2022/12/11 02:21:27;;;;;;;109.38;23.77;;;;;;;;;;5051750;28;20040;-71
2022/12/11 02:24:12;;;;;;;111.55;24.48;;;;;;;;;;5053139;28;20498;-71
2022/12/11 02:26:41;;;;;;;122.20;25.23;;;;;;;;;;5051564;28;20041;-71
2022/12/11 02:29:19;;;;;;;101.65;24.52;;;;;;;;;;5051710;28;20033;-71
2022/12/11 02:31:47;;;;;;;93.65;23.05;;;;;;;;;;5051959;28;20056;-71
2022/12/11 02:34:22;;;;;;;111.75;25.52;;;;;;;;;;5052171;28;20516;-71
2022/12/11 02:36:52;;;;;;;97.97;24.80;;;;;;;;;;5052582;28;20398;-71
2022/12/11 02:39:21;;;;;;;107.03;24.85;;;;;;;;;;5051703;28;20040;-71
2022/12/11 02:41:48;;;;;;;109.57;24.23;;;;;;;;;;5051689;28;20075;-71
2022/12/11 02:44:16;;;;;;;111.03;24.42;;;;;;;;;;5051680;28;20248;-71
2022/12/11 02:46:43;;;;;;;100.15;24.65;;;;;;;;;;5052013;28;20482;-71
2022/12/11 02:49:10;;;;;;;110.22;25.42;;;;;;;;;;5034980;28;20098;-71
2022/12/11 02:51:38;;;;;;;102.50;24.02;;;;;;;;;;5051890;28;20485;-71
2022/12/11 02:54:06;;;;;;;128.93;25.17;;;;;;;;;;5051399;28;20052;-71
2022/12/11 02:56:44;;;;;;;110.97;25.77;;;;;;;;;;5051755;28;20037;-71
2022/12/11 02:59:36;;;;;;;108.22;26.70;;;;;;;;;;5055019;28;20098;-71
2022/12/11 03:02:03;;;;;;;135.27;28.13;;;;;;;;;;5053322;28;20087;-71
2022/12/11 03:04:29;;;;;;;118.78;26.10;;;;;;;;;;5055761;28;20040;-71
2022/12/11 03:06:59;;;;;;;108.07;25.70;;;;;;;;;;5055777;28;20091;-71
2022/12/11 03:09:25;;;;;;;115.45;25.35;;;;;;;;;;5038778;28;20044;-71
2022/12/11 03:11:52;;;;;;;126.63;25.63;;;;;;;;;;5039161;28;20048;-71
2022/12/11 03:14:18;;;;;;;128.65;28.83;;;;;;;;;;5038830;28;20048;-71
2022/12/11 03:16:54;;;;;;;137.38;28.40;;;;;;;;;;5055551;28;20080;-71
2022/12/11 03:19:28;;;;;;;148.80;28.30;;;;;;;;;;5055538;28;20428;-71
2022/12/11 03:21:57;;;;;;;157.65;30.00;;;;;;;;;;5038686;28;20037;-71
2022/12/11 03:24:29;;;;;;;142.82;28.98;;;;;;;;;;5055156;28;20049;-71
2022/12/11 03:26:58;;;;;;;141.00;28.13;;;;;;;;;;5055561;28;20044;-71
2022/12/11 03:29:31;;;;;;;138.02;27.92;;;;;;;;;;5055383;28;20037;-71
2022/12/11 03:32:08;;;;;;;149.73;31.35;;;;;;;;;;5055586;28;20075;-71
2022/12/11 03:34:40;;;;;;;145.25;27.20;;;;;;;;;;5055199;28;20055;-71
2022/12/11 03:37:07;;;;;;;142.03;28.33;;;;;;;;;;5055219;28;20052;-71
2022/12/11 03:39:37;;;;;;;148.85;27.48;;;;;;;;;;5055000;28;20067;-71
2022/12/11 03:42:05;;;;;;;156.27;29.08;;;;;;;;;;5038585;28;20048;-71
2022/12/11 03:44:32;;;;;;;145.95;28.45;;;;;;;;;;5055066;28;20052;-71
2022/12/11 03:46:59;;;;;;;144.90;27.00;;;;;;;;;;5054917;28;20037;-71
2022/12/11 03:49:27;;;;;;;163.70;29.88;;;;;;;;;;5054668;28;20041;-71
2022/12/11 03:51:55;;;;;;;152.30;30.27;;;;;;;;;;5054550;28;20124;-71
2022/12/11 03:54:22;;;;;;;160.32;29.20;;;;;;;;;;5088196;28;20512;-71
2022/12/11 03:56:50;;;;;;;174.63;29.20;;;;;;;;;;5054831;28;20131;-71
2022/12/11 03:59:16;;;;;;;141.55;28.58;;;;;;;;;;5054914;28;20131;-71
2022/12/11 04:01:42;;;;;;;155.68;30.38;;;;;;;;;;5054397;28;20041;-71
2022/12/11 04:04:08;;;;;;;162.32;28.95;;;;;;;;;;5054837;28;20037;-71
2022/12/11 04:06:35;;;;;;;153.70;28.75;;;;;;;;;;5054542;28;20041;-71
2022/12/11 04:09:01;;;;;;;152.27;29.67;;;;;;;;;;5053753;28;20044;-71
2022/12/11 04:11:36;;;;;;;144.68;27.92;;;;;;;;;;5054565;28;20037;-71
2022/12/11 04:16:48;;;;;;;132.77;27.40;;;;;;;;;;5054352;28;20055;-71
2022/12/11 04:25:05;;;;;;;136.68;26.25;;;;;;;;;;5017305;28;20045;-71
2022/12/11 04:27:49;;;;;;;147.80;29.05;;;;;;;;;;5016681;28;20060;-71
2022/12/11 04:30:17;;;;;;;146.45;29.50;;;;;;;;;;5031575;28;20049;-71
2022/12/11 04:32:43;;;;;;;138.85;25.80;;;;;;;;;;5053933;28;20044;-71
2022/12/11 04:35:10;;;;;;;155.25;27.77;;;;;;;;;;5054303;28;20045;-71
2022/12/11 04:37:37;;;;;;;129.80;27.75;;;;;;;;;;5054026;28;20036;-71
2022/12/11 04:40:04;;;;;;;149.80;27.52;;;;;;;;;;5088065;28;20041;-71
2022/12/11 04:42:30;;;;;;;147.13;28.30;;;;;;;;;;5053595;28;20112;-71
2022/12/11 04:44:56;;;;;;;169.43;28.92;;;;;;;;;;5054124;28;20037;-71
2022/12/11 04:47:23;;;;;;;138.35;27.98;;;;;;;;;;5053840;28;20041;-71
2022/12/11 04:49:49;;;;;;;160.57;29.98;;;;;;;;;;5054456;28;20049;-71
2022/12/11 04:52:15;;;;;;;135.88;28.30;;;;;;;;;;5053751;28;20453;-71
2022/12/11 04:54:41;;;;;;;131.40;28.77;;;;;;;;;;5053965;28;20045;-71
2022/12/11 04:57:07;;;;;;;131.05;26.88;;;;;;;;;;5037242;28;20489;-71
2022/12/11 04:59:33;;;;;;;142.93;28.92;;;;;;;;;;5053795;28;20036;-71
2022/12/11 05:01:59;;;;;;;130.40;28.83;;;;;;;;;;5053315;28;20362;-71
2022/12/11 05:04:26;;;;;;;127.00;27.55;;;;;;;;;;5053528;28;20393;-71
2022/12/11 05:06:52;;;;;;;127.43;26.27;;;;;;;;;;5053709;28;20041;-71
2022/12/11 05:09:18;;;;;;;141.73;28.00;;;;;;;;;;5053271;28;20041;-71
2022/12/11 05:11:44;;;;;;;142.10;25.70;;;;;;;;;;5036663;28;20532;-71
2022/12/11 05:14:10;;;;;;;134.63;28.80;;;;;;;;;;5053589;28;20087;-71
2022/12/11 05:16:36;;;;;;;129.80;26.52;;;;;;;;;;5053240;28;20048;-71
2022/12/11 05:19:02;;;;;;;128.27;27.70;;;;;;;;;;5052855;28;20124;-71
2022/12/11 05:21:28;;;;;;;144.93;28.70;;;;;;;;;;5052770;28;20059;-71
2022/12/11 05:23:54;;;;;;;129.73;28.77;;;;;;;;;;5036334;28;20067;-71
2022/12/11 05:26:20;;;;;;;125.60;26.58;;;;;;;;;;5036621;28;20037;-71
2022/12/11 05:28:50;;;;;;;146.35;27.60;;;;;;;;;;5052700;28;20033;-71
2022/12/11 05:31:17;;;;;;;125.80;27.08;;;;;;;;;;5053514;28;20076;-71
2022/12/11 05:33:44;;;;;;;126.57;28.42;;;;;;;;;;5052662;28;20124;-71
2022/12/11 05:36:15;;;;;;;120.07;26.38;;;;;;;;;;5036613;28;20485;-71
2022/12/11 05:38:42;;;;;;;125.15;26.77;;;;;;;;;;5053082;28;20481;-71
2022/12/11 05:41:08;;;;;;;135.68;27.40;;;;;;;;;;5052843;28;20056;-71
2022/12/11 05:43:35;;;;;;;132.07;26.08;;;;;;;;;;5052714;28;20040;-71
2022/12/11 05:46:06;;;;;;;110.70;26.15;;;;;;;;;;5053043;28;20461;-71
2022/12/11 05:48:32;;;;;;;136.93;26.98;;;;;;;;;;5052638;28;20095;-71
2022/12/11 05:50:59;;;;;;;110.63;25.63;;;;;;;;;;5054369;28;20048;-71
2022/12/11 05:53:25;;;;;;;140.95;28.50;;;;;;;;;;5052844;28;20049;-71
2022/12/11 05:55:51;;;;;;;118.78;26.88;;;;;;;;;;5052661;28;20066;-71
2022/12/11 05:58:18;;;;;;;118.75;26.23;;;;;;;;;;5052117;28;20036;-71
2022/12/11 06:00:44;;;;;;;123.95;26.13;;;;;;;;;;5036136;28;20045;-71
2022/12/11 06:03:10;;;;;;;115.03;24.90;;;;;;;;;;5052115;28;20037;-71
2022/12/11 06:05:40;;;;;;;119.35;25.75;;;;;;;;;;5052401;28;20047;-71
2022/12/11 06:08:06;;;;;;;121.20;25.10;;;;;;;;;;5051987;28;20032;-71
2022/12/11 06:10:32;;;;;;;111.13;26.95;;;;;;;;;;5035677;28;20044;-71
2022/12/11 06:12:58;;;;;;;126.60;28.08;;;;;;;;;;5052349;28;20106;-71
2022/12/11 06:15:24;;;;;;;106.03;25.52;;;;;;;;;;5052217;28;20090;-71
2022/12/11 06:17:50;;;;;;;112.50;26.23;;;;;;;;;;5051964;28;20064;-71
2022/12/11 06:20:16;;;;;;;112.95;26.65;;;;;;;;;;5052083;28;20090;-71
2022/12/11 06:22:43;;;;;;;135.68;29.17;;;;;;;;;;5051863;28;20061;-71
2022/12/11 06:25:09;;;;;;;87.47;24.23;;;;;;;;;;5051954;28;20547;-71
2022/12/11 06:27:35;;;;;;;114.68;25.92;;;;;;;;;;5052032;28;20044;-71
2022/12/11 06:30:01;;;;;;;122.90;24.90;;;;;;;;;;5051706;28;20060;-71
2022/12/11 06:32:27;;;;;;;121.90;25.17;;;;;;;;;;5035022;28;20045;-71
2022/12/11 06:34:53;;;;;;;109.45;25.33;;;;;;;;;;5051828;28;20072;-71
2022/12/11 06:37:20;;;;;;;115.88;25.02;;;;;;;;;;5051995;28;20127;-71
2022/12/11 06:39:46;;;;;;;124.20;24.30;;;;;;;;;;5051918;28;20478;-71
2022/12/11 06:42:12;;;;;;;112.30;24.98;;;;;;;;;;5051863;28;20045;-71
2022/12/11 06:44:38;;;;;;;105.53;25.63;;;;;;;;;;5051826;28;20167;-71
2022/12/11 06:47:04;;;;;;;119.03;25.85;;;;;;;;;;5035376;28;20033;-71
2022/12/11 06:49:30;;;;;;;110.35;24.38;;;;;;;;;;5051492;28;20119;-71
2022/12/11 06:51:57;;;;;;;121.00;26.33;;;;;;;;;;5052062;28;20145;-71
2022/12/11 06:54:27;;;;;;;101.93;22.67;;;;;;;;;;5051345;28;20040;-71
2022/12/11 06:56:53;;;;;;;101.32;25.55;;;;;;;;;;5051880;28;20077;-71
2022/12/11 06:59:19;;;;;;;108.88;24.52;;;;;;;;;;5035203;28;20051;-70
2022/12/11 07:01:45;;;;;;;118.40;26.05;;;;;;;;;;5035183;28;20107;-71
2022/12/11 07:04:11;;;;;;;104.78;24.40;;;;;;;;;;5052032;28;20041;-71
2022/12/11 07:06:37;;;;;;;93.03;24.45;;;;;;;;;;5051635;28;20037;-71
2022/12/11 07:09:04;;;;;;;112.65;25.50;;;;;;;;;;5051241;28;20041;-71
2022/12/11 07:11:30;;;;;;;117.55;25.10;;;;;;;;;;5051689;28;20053;-71
2022/12/11 07:13:59;;;;;;;121.18;26.40;;;;;;;;;;5051854;28;20067;-71
2022/12/11 07:16:25;;;;;;;105.38;23.75;;;;;;;;;;5051517;28;20090;-71
2022/12/11 07:18:52;;;;;;;107.38;25.33;;;;;;;;;;5085289;28;20048;-71
2022/12/11 07:21:18;;;;;;;108.53;25.10;;;;;;;;;;5034835;28;20053;-71
2022/12/11 07:23:45;;;;;;;116.38;26.17;;;;;;;;;;5051239;28;20053;-71
2022/12/11 07:26:13;;;;;;;102.43;23.60;;;;;;;;;;5051517;28;20128;-71
2022/12/11 07:28:39;;;;;;;105.00;24.60;;;;;;;;;;5051712;28;20051;-71
2022/12/11 07:31:06;;;;;;;95.63;24.75;;;;;;;;;;5051332;28;20485;-71
2022/12/11 07:33:32;;;;;;;113.78;25.23;;;;;;;;;;5051653;28;20124;-71
2022/12/11 07:36:02;;;;;;;119.78;26.60;;;;;;;;;;5051163;28;20033;-71
2022/12/11 07:38:29;;;;;;;115.90;25.13;;;;;;;;;;5051185;28;20072;-71
2022/12/11 07:40:55;;;;;;;106.05;24.17;;;;;;;;;;5051190;28;20045;-71
2022/12/11 07:43:21;;;;;;;114.90;26.85;;;;;;;;;;5051681;28;20044;-71
2022/12/11 07:45:47;;;;;;;128.95;29.20;;;;;;;;;;5054781;28;20473;-71
2022/12/11 07:48:13;;;;;;;107.43;24.23;;;;;;;;;;5088860;28;20139;-70
2022/12/11 07:50:39;;;;;;;115.72;26.05;;;;;;;;;;5054973;28;20040;-71
2022/12/11 07:53:06;;;;;;;120.15;26.85;;;;;;;;;;5054343;28;20123;-70
2022/12/11 07:55:32;;;;;;;108.70;26.75;;;;;;;;;;5054652;28;20045;-71
2022/12/11 07:57:58;;;;;;;107.82;26.23;;;;;;;;;;5054900;28;20041;-71
2022/12/11 08:00:24;;;;;;;113.88;27.27;;;;;;;;;;5054767;28;20041;-71
2022/12/11 08:02:50;;;;;;;145.63;27.80;;;;;;;;;;5054345;28;20052;-71
2022/12/11 08:05:16;;;;;;;128.15;27.88;;;;;;;;;;5055053;28;20080;-77
2022/12/11 08:07:42;;;;;;;130.43;27.92;;;;;;;;;;5054374;28;20048;-71
2022/12/11 08:10:09;;;;;;;111.43;24.77;;;;;;;;;;5053768;28;20119;-72
2022/12/11 08:12:35;;;;;;;119.13;26.83;;;;;;;;;;5053807;28;20045;-71
2022/12/11 08:15:01;;;;;;;110.35;26.85;;;;;;;;;;5053162;28;20041;-71
2022/12/11 08:17:27;;;;;;;120.05;27.48;;;;;;;;;;5036503;28;20048;-71
2022/12/11 08:19:53;;;;;;;119.72;27.00;;;;;;;;;;5019399;28;20176;-72
2022/12/11 08:22:19;;;;;;;119.20;29.02;;;;;;;;;;5035898;28;20033;-71
2022/12/11 08:24:46;;;;;;;124.80;27.42;;;;;;;;;;5052869;28;20049;-72
2022/12/11 08:27:12;;;;;;;114.80;25.73;;;;;;;;;;5053807;28;20045;-72
2022/12/11 08:29:38;;;;;;;118.00;27.38;;;;;;;;;;5053603;28;20037;-72
2022/12/11 08:32:04;;;;;;;92.47;21.42;;;;;;;;;;5052660;28;20045;-82
2022/12/11 08:34:31;;;;;;;114.03;25.35;;;;;;;;;;5049118;28;20037;-74
2022/12/11 08:36:57;;;;;;;117.05;27.20;;;;;;;;;;5035044;28;20033;-71
2022/12/11 08:39:24;;;;;;;118.30;27.92;;;;;;;;;;5051949;28;20052;-71
2022/12/11 08:41:50;;;;;;;126.70;28.98;;;;;;;;;;5053871;28;20099;-71
2022/12/11 08:44:16;;;;;;;118.25;28.15;;;;;;;;;;5054197;28;20055;-71
2022/12/11 08:46:42;;;;;;;120.95;26.85;;;;;;;;;;5052785;28;20482;-71
2022/12/11 08:49:09;;;;;;;121.15;26.75;;;;;;;;;;5037892;28;20037;-71
2022/12/11 08:51:35;;;;;;;110.50;26.95;;;;;;;;;;5053835;28;20052;-71
2022/12/11 08:54:01;;;;;;;104.57;28.02;;;;;;;;;;5053962;28;20048;-71
2022/12/11 08:56:28;;;;;;;93.75;25.00;;;;;;;;;;5053341;28;20048;-71
2022/12/11 08:58:54;;;;;;;120.45;26.20;;;;;;;;;;5037313;28;20110;-71
2022/12/11 09:01:22;;;;;;;112.72;24.85;;;;;;;;;;5053595;28;20044;-71
2022/12/11 09:03:48;;;;;;;96.22;27.42;;;;;;;;;;5053782;28;20045;-71
2022/12/11 09:06:17;;;;;;;116.38;26.10;;;;;;;;;;5054010;28;20117;-72
2022/12/11 09:08:44;;;;;;;97.72;24.23;;;;;;;;;;5053497;28;20120;-72
2022/12/11 09:11:17;;;;;;;115.32;28.38;;;;;;;;;;5053868;28;20041;-73
2022/12/11 09:13:44;;;;;;;104.43;26.92;;;;;;;;;;5053501;28;20041;-73
2022/12/11 09:16:11;;;;;;;105.13;27.02;;;;;;;;;;5053401;28;20047;-73
2022/12/11 09:18:38;;;;;;;117.43;26.77;;;;;;;;;;5053366;28;20079;-73
2022/12/11 09:21:05;;;;;;;105.47;25.80;;;;;;;;;;5053358;28;20040;-73
2022/12/11 09:23:32;;;;;;;104.38;25.25;;;;;;;;;;5053246;28;20064;-73
2022/12/11 09:25:58;;;;;;;100.25;27.85;;;;;;;;;;5053270;28;20076;-73
2022/12/11 09:28:24;;;;;;;100.82;26.95;;;;;;;;;;5036814;28;20036;-73
2022/12/11 09:30:50;;;;;;;97.32;25.70;;;;;;;;;;5053241;28;20090;-73
2022/12/11 09:33:16;;;;;;;106.90;28.65;;;;;;;;;;5054490;28;20397;-73
2022/12/11 09:35:42;;;;;;;100.80;27.23;;;;;;;;;;5053344;28;20424;-71
2022/12/11 09:38:09;;;;;;;126.20;27.42;;;;;;;;;;5052991;28;20129;-71
2022/12/11 09:40:42;;;;;;;96.22;25.95;;;;;;;;;;5053066;28;20052;-72
2022/12/11 09:43:10;;;;;;;;;;;2.60;99.90;;;;;;5053952;28;20044;-72
2022/12/11 09:45:36;;;;;;;101.97;24.92;;;;;;;;;;5053031;28;19917;-73
2022/12/11 09:48:02;;;;;;;111.03;25.73;;;;;;;;;;5052797;28;20037;-73
2022/12/11 09:50:31;;;;;;;99.82;26.60;;;;;;;;;;5052865;28;20519;-73
2022/12/11 09:53:03;;;;;;;94.07;25.15;;;;;;;;;;5052658;28;20045;-73
2022/12/11 09:55:35;;;;;;;99.07;26.40;;;;;;;;;;5052763;28;20045;-73
2022/12/11 09:58:22;;;;;;;103.60;28.13;;;;;;;;;;5052793;28;20032;-73
2022/12/11 10:00:53;;;;;;;101.60;26.25;;;;;;;;;;5052441;28;20045;-73
2022/12/11 10:03:41;;;;;;;101.53;26.80;;;;;;;;;;5052571;28;20068;-73
2022/12/11 10:06:07;;;;;;;92.28;26.70;;;;;;;;;;5052665;28;20087;-73
2022/12/11 10:08:49;;;;;;;95.28;24.70;;;;;;;;;;5051582;28;20055;-73
2022/12/11 10:11:21;;;;;;;93.85;25.38;;;;;;;;;;5052777;28;20048;-73
2022/12/11 10:14:06;;;;;;;85.47;23.83;;;;;;;;;;5052772;28;20417;-73
2022/12/11 10:16:41;;;;;;;89.43;24.50;;;;;;;;;;5035989;28;20440;-73
2022/12/11 10:19:14;;;;;;;93.63;25.35;;;;;;;;;;5052307;28;20048;-73
2022/12/11 10:21:40;;;;;;;89.68;25.90;;;;;;;;;;5052146;28;20186;-73
2022/12/11 10:24:13;;;;;;;88.90;25.33;;;;;;;;;;5035618;28;20060;-73
2022/12/11 10:26:40;;;;;;;102.65;25.15;;;;;;;;;;5052084;28;20041;-73
2022/12/11 10:29:10;;;;;;;88.32;26.45;;;;;;;;;;5035569;28;20044;-73
2022/12/11 10:31:55;;;;;;;87.43;24.02;;;;;;;;;;5052150;28;20041;-73
2022/12/11 10:34:41;;;;;;;82.07;25.25;;;;;;;;;;5052223;28;20044;-73
2022/12/11 10:37:07;;;;;;;75.07;23.15;;;;;;;;;;5051705;28;20106;-73
2022/12/11 10:39:33;;;;;;;87.03;22.95;;;;;;;;;;5052017;28;20037;-73
2022/12/11 10:41:59;;;;;;;82.88;24.30;;;;;;;;;;5052003;28;20080;-73
2022/12/11 10:44:27;;;;;;;74.35;23.15;;;;;;;;;;5035381;28;20037;-73
2022/12/11 10:47:11;;;;;;;79.05;25.50;;;;;;;;;;5052038;28;20041;-73
2022/12/11 10:49:38;;;;;;;78.47;24.25;;;;;;;;;;5051949;28;20037;-73
2022/12/11 10:52:30;;;;;;;82.28;24.73;;;;;;;;;;5035768;28;20041;-73
2022/12/11 10:55:06;;;;;;;81.93;24.45;;;;;;;;;;5050112;28;20069;-73
2022/12/11 10:57:36;;;;;;;81.10;24.65;;;;;;;;;;5052207;28;20037;-73
2022/12/11 11:00:04;;;;;;;92.15;25.98;;;;;;;;;;5052258;28;20036;-73
2022/12/11 11:02:34;;;;;;;87.50;28.05;;;;;;;;;;5052052;28;20045;-72
2022/12/11 11:05:10;;;;;;;92.10;26.30;;;;;;;;;;5051788;28;20400;-71
2022/12/11 11:07:36;;;;;;;81.32;25.50;;;;;;;;;;5035147;28;20397;-72
2022/12/11 11:10:12;;;;;;;98.57;27.48;;;;;;;;;;5051878;28;20124;-72
2022/12/11 11:12:48;;;;;;;90.38;26.08;;;;;;;;;;5051658;28;20075;-72
2022/12/11 11:15:16;;;;;;;105.88;25.67;;;;;;;;;;5051668;28;20049;-72
2022/12/11 11:17:44;;;;;;;89.18;25.83;;;;;;;;;;5051650;28;20037;-72
2022/12/11 11:20:18;;;;;;;98.55;26.40;;;;;;;;;;5055208;28;20072;-73
2022/12/11 11:22:46;;;;;;;89.63;25.15;;;;;;;;;;5038903;28;20045;-73
2022/12/11 11:25:16;;;;;;;98.32;27.48;;;;;;;;;;5055360;28;20056;-73
2022/12/11 11:27:49;;;;;;;92.75;25.88;;;;;;;;;;5055899;28;20080;-73
2022/12/11 11:30:18;;;;;;;93.65;26.70;;;;;;;;;;5055582;28;20041;-73
2022/12/11 11:32:44;;;;;;;98.97;27.60;;;;;;;;;;5055606;28;20478;-73
2022/12/11 11:35:10;;;;;;;100.85;28.05;;;;;;;;;;5056764;28;20044;-73
2022/12/11 11:37:37;;;;;;;97.10;28.25;;;;;;;;;;5055371;28;20045;-73
2022/12/11 11:40:21;;;;;;;84.70;26.75;;;;;;;;;;5055426;28;20371;-73
2022/12/11 11:43:06;;;;;;;95.43;27.02;;;;;;;;;;5055111;28;20082;-73
2022/12/11 11:45:39;;;;;;;87.65;27.50;;;;;;;;;;5055257;28;20045;-73
2022/12/11 11:48:24;;;;;;;95.22;29.10;;;;;;;;;;5055166;28;20048;-73
2022/12/11 11:50:52;;;;;;;91.82;27.67;;;;;;;;;;5038497;28;20507;-73
2022/12/11 11:53:36;;;;;;;100.47;27.70;;;;;;;;;;5056289;28;20044;-73
2022/12/11 11:56:17;;;;;;;89.60;26.85;;;;;;;;;;5054963;28;20049;-73
2022/12/11 11:58:46;;;;;;;82.85;26.27;;;;;;;;;;5055096;28;20068;-73
2022/12/11 12:01:14;;;;;;;95.57;27.25;;;;;;;;;;5055090;28;20083;-73
2022/12/11 12:03:41;;;;;;;94.20;27.83;;;;;;;;;;5054725;28;20029;-73
2022/12/11 12:06:12;;;;;;;87.82;27.00;;;;;;;;;;5054984;28;20041;-73
2022/12/11 12:08:38;;;;;;;89.40;29.42;;;;;;;;;;5054742;28;20037;-73
2022/12/11 12:11:19;;;;;;;90.57;27.45;;;;;;;;;;5054880;28;20071;-73
2022/12/11 12:14:12;;;;;;;85.40;27.63;;;;;;;;;;5054561;28;20127;-73
2022/12/11 12:16:50;;;;;;;90.85;29.50;;;;;;;;;;5052815;28;20493;-73
2022/12/11 12:19:16;;;;;;;92.38;28.83;;;;;;;;;;5054895;28;20088;-73
2022/12/11 12:21:46;;;;;;;93.43;27.88;;;;;;;;;;5054718;28;20390;-73
2022/12/11 12:24:31;;;;;;;79.30;26.92;;;;;;;;;;5054433;28;20052;-73
2022/12/11 12:27:05;;;;;;;82.38;28.30;;;;;;;;;;5054402;28;20047;-73
2022/12/11 12:29:42;;;;;;;75.32;26.45;;;;;;;;;;5054487;28;20041;-73
2022/12/11 12:32:17;;;;;;;80.70;27.65;;;;;;;;;;5053790;28;20061;-73
2022/12/11 12:34:52;;;;;;;84.28;28.67;;;;;;;;;;5054339;28;20132;-73
2022/12/11 12:37:24;;;;;;;86.47;28.13;;;;;;;;;;5037855;28;20043;-73
2022/12/11 12:39:50;;;;;;;80.95;28.00;;;;;;;;;;5054569;28;20477;-73
2022/12/11 12:42:28;;;;;;;81.85;26.98;;;;;;;;;;5053997;28;20512;-73
2022/12/11 12:45:11;;;;;;;78.13;27.58;;;;;;;;;;5054080;28;20127;-73
2022/12/11 12:47:38;;;;;;;80.00;26.45;;;;;;;;;;5054355;28;20056;-73
2022/12/11 12:50:09;;;;;;;84.18;27.02;;;;;;;;;;5054047;28;20032;-73
2022/12/11 12:52:36;;;;;;;77.30;26.70;;;;;;;;;;5054135;28;20053;-73
2022/12/11 12:55:16;;;;;;;80.70;27.52;;;;;;;;;;5053929;28;20055;-73
2022/12/11 12:57:51;;;;;;;88.15;28.75;;;;;;;;;;5054192;28;20124;-73
2022/12/11 13:00:34;;;;;;;79.57;27.45;;;;;;;;;;5053877;28;20094;-73
2022/12/11 13:03:02;;;;;;;79.95;27.10;;;;;;;;;;5053724;28;20037;-73
2022/12/11 13:05:30;;;;;;;77.40;28.25;;;;;;;;;;5053711;28;20079;-73
2022/12/11 13:07:57;;;;;;;82.65;28.85;;;;;;;;;;5053778;28;20040;-73
2022/12/11 13:10:31;;;;;;;82.35;28.35;;;;;;;;;;5037349;28;20080;-72
2022/12/11 13:12:58;;;;;;;76.82;27.75;;;;;;;;;;5053586;28;20095;-72
2022/12/11 13:15:27;;;;;;;82.38;27.95;;;;;;;;;;5053539;28;20084;-72
2022/12/11 13:17:54;;;;;;;79.25;27.52;;;;;;;;;;5053507;28;20040;-72
2022/12/11 13:20:21;;;;;;;87.25;28.27;;;;;;;;;;5054015;28;20080;-72
2022/12/11 13:22:55;;;;;;;77.53;26.45;;;;;;;;;;5038904;28;20048;-72
2022/12/11 13:25:27;;;;;;;79.55;27.52;;;;;;;;;;5053297;28;20045;-72
2022/12/11 13:28:04;;;;;;;84.70;27.05;;;;;;;;;;5053699;28;20044;-73
2022/12/11 13:30:30;;;;;;;76.10;26.75;;;;;;;;;;5053264;28;20040;-73
2022/12/11 13:32:56;;;;;;;78.53;27.92;;;;;;;;;;5053373;28;20512;-74
2022/12/11 13:35:22;;;;;;;85.35;26.75;;;;;;;;;;5053100;28;20037;-73
2022/12/11 13:37:49;;;;;;;82.65;27.52;;;;;;;;;;5053466;28;20049;-73
2022/12/11 13:40:21;;;;;;;75.15;25.58;;;;;;;;;;5052897;28;20053;-73
2022/12/11 13:42:48;;;;;;;78.00;27.17;;;;;;;;;;5052752;28;20557;-73
2022/12/11 13:45:38;;;;;;;83.57;26.75;;;;;;;;;;5052976;28;20037;-73
2022/12/11 13:48:11;;;;;;;78.75;25.50;;;;;;;;;;5047360;28;20107;-73
2022/12/11 13:50:41;;;;;;;73.13;24.55;;;;;;;;;;5053028;28;20037;-73
2022/12/11 13:53:14;;;;;;;75.18;27.02;;;;;;;;;;5052867;28;20128;-73
2022/12/11 13:55:40;;;;;;;;;;;3.10;99.90;;;;;;5053067;28;20044;-73
2022/12/11 13:58:15;;;;;;;77.65;25.70;;;;;;;;;;5036339;28;19951;-73
2022/12/11 14:00:41;;;;;;;74.53;25.75;;;;;;;;;;5052796;28;20045;-73
2022/12/11 14:03:07;;;;;;;71.47;25.15;;;;;;;;;;5052484;28;20037;-73
2022/12/11 14:05:34;;;;;;;83.72;27.45;;;;;;;;;;5052783;28;20052;-73
2022/12/11 14:08:05;;;;;;;84.50;26.45;;;;;;;;;;5052614;28;20124;-73
2022/12/11 14:10:32;;;;;;;79.88;26.20;;;;;;;;;;5052398;28;20060;-73
2022/12/11 14:13:01;;;;;;;66.57;24.33;;;;;;;;;;5052613;28;20055;-73
2022/12/11 14:15:28;;;;;;;71.88;25.48;;;;;;;;;;5052415;28;20086;-73
2022/12/11 14:17:55;;;;;;;76.00;26.48;;;;;;;;;;5052336;28;20442;-73
2022/12/11 14:20:29;;;;;;;69.22;24.52;;;;;;;;;;5052349;28;20037;-73
2022/12/11 14:23:05;;;;;;;70.60;24.75;;;;;;;;;;5051944;28;20477;-73
2022/12/11 14:25:31;;;;;;;66.32;24.00;;;;;;;;;;5052249;28;20052;-73
2022/12/11 14:27:57;;;;;;;70.45;24.50;;;;;;;;;;5035945;28;20048;-73
2022/12/11 14:30:31;;;;;;;72.60;25.60;;;;;;;;;;5052099;28;20124;-73